Share

Wainwright, AK

Wainwright (PAWI) Elev 39 ft | 70.64 °N, 159.99 °W | Change Station

Current weather conditions updated 9 minutes ago

Mostly Cloudy
Mostly Cloudy
-11 °F
Feels Like -32 °F
N
13
Wind Variable Wind from NE
Sunrise 6:08 AM
Sunset 11:13 PM
Moon Waning Gibbous

Today is forecast to be Warmer than yesterday.

Pressure 29.95 in
Visibility 10.0 miles
Clouds Mostly Cloudy 100 ft
Windchill -32 °F
Dew Point -17 °F
Humidity 77%
Rainfall 0.00 in
Snow Depth Not available.
UV 0 out of 16
Pollen Not available.
Air Quality Not available.
Flu Activity Sporadic
SPECI PAWI 191423Z AUTO 05011KT 10SM BKN001 M24/M27 A2995 RMK AO2 TSNO

More Conditions Fewer Conditions

Pressure 29.95 in
Visibility 10.0 miles
Clouds Mostly Cloudy 100 ft
Windchill -32 °F
Dew Point -17 °F
Humidity 77%
Rainfall 0.00 in
Snow Depth Not available.
UV 0 out of 16
Pollen Not available.
Air Quality Not available.
Flu Activity Sporadic
SPECI PAWI 191423Z AUTO 05011KT 10SM BKN001 M24/M27 A2995 RMK AO2 TSNO

More Conditions Fewer Conditions

10-Day Weather Forecast

Almanac

Astronomy

Apr. 19, 2014 Rise Set
Actual Time 6:08 AM AKDT 11:13 PM AKDT
Civil Twilight 4:28 AM AKDT 12:57 AM AKDT
Nautical Twilight Sun does not rise Sun does not rise
Astronomical Twilight Sun does not rise Sun does not rise
Moon 5:39 AM AKDT 7:05 AM AKDT
Length of Visible Light 20h 28m
Length of Day
17h 05m
Tomorrow will be 10m 27s longer.
Waning Gibbous, 79% of the Moon is Illuminated
Today
Waning Gibbous
Apr 22
Last Quarter
Apr 29
New
May 6
First Quarter
May 14
Full

Today's Extremes

State Highs State Lows

Community

  • A Glorious Morning
    A Glorious Morning
  • Bleeding Hearts
    Bleeding Hearts
  • Sunset Silhouettes
    Sunset Silhouettes
  • FL sunset Perico Isle
    FL sunset Perico Isle
  • La Conner
    La Conner

WunderPhotos

Upload Photos

1,702,745 photos uploaded!

Nearby

Snow Depth

Station Depth Elevation
Imnaviat Creek 94 in 3050 ft
Atigun Pass 37 in 4800 ft
Coldfoot 23 in 1040 ft
Gobblers Knob 8 in 2030 ft
Pargon Creek 3 in 300 ft

Coastal Water Temperatures

Place Temperature
No Stations Reporting

Earthquake Activity

City Distance Mag. Time & Date
No recent earthquake activity has been reported nearby.
Minimum magnitude displayed is 2.5.

Nearby Weather Stations

There are no personal weather stations in this area.

What do you think?

We're not finished. Please let us know what you like, what you don't like, and what you are still missing.